Time;durP1;ratioP1;P1;durP2;ratioP2;P2;SDS_P1;SDS_P2;PMS_P1;PMS_P2;Temp;Humidity;BMP_temperature;BMP_pressure;BME280_temperature;BME280_humidity;BME280_pressure;Samples;Min_cycle;Max_cycle;Signal;HPM_P1;HPM_P2
2022/01/09 00:00:11;;;;;;;1.63;0.65;;;;;;;5.24;100.00;97782.31;5093674;28;20462;-61
2022/01/09 00:02:37;;;;;;;1.67;0.77;;;;;;;5.16;100.00;97782.88;5093925;28;20028;-61
2022/01/09 00:05:02;;;;;;;4.25;1.00;;;;;;;5.10;100.00;97791.09;5093749;28;20386;-61
2022/01/09 00:07:28;;;;;;;1.50;0.70;;;;;;;5.04;100.00;97800.16;5094243;28;20027;-61
2022/01/09 00:09:55;;;;;;;2.55;1.10;;;;;;;5.02;100.00;97802.03;5093732;28;20099;-61
2022/01/09 00:12:21;;;;;;;2.63;1.00;;;;;;;4.96;100.00;97810.28;5092756;28;20157;-60
2022/01/09 00:14:46;;;;;;;4.80;1.70;;;;;;;4.40;100.00;97722.28;5093667;28;20486;-61
2022/01/09 00:17:12;;;;;;;5.72;1.15;;;;;;;4.93;100.00;97823.50;5092637;28;20031;-60
2022/01/09 00:19:37;;;;;;;5.00;1.20;;;;;;;4.89;100.00;97823.81;5093456;28;20020;-61
2022/01/09 00:22:02;;;;;;;3.92;1.30;;;;;;;4.86;100.00;97837.88;5090715;28;20036;-60
2022/01/09 00:24:28;;;;;;;3.50;1.52;;;;;;;4.87;100.00;97847.31;5108991;28;20452;-60
2022/01/09 00:26:53;;;;;;;3.25;1.20;;;;;;;4.82;100.00;97857.22;5093845;28;20024;-60
2022/01/09 00:29:18;;;;;;;3.65;1.38;;;;;;;4.77;100.00;97848.03;5091785;28;20505;-61
2022/01/09 00:31:44;;;;;;;7.38;2.03;;;;;;;4.73;100.00;97852.59;5093570;28;20032;-61
2022/01/09 00:34:09;;;;;;;8.82;1.98;;;;;;;4.72;100.00;97850.97;5093113;28;20111;-61
2022/01/09 00:36:34;;;;;;;3.97;1.77;;;;;;;4.72;100.00;97884.78;5093534;28;20031;-60
2022/01/09 00:39:00;;;;;;;5.50;2.22;;;;;;;4.70;100.00;97878.81;5093244;28;20115;-60
2022/01/09 00:41:25;;;;;;;6.60;2.30;;;;;;;4.69;100.00;97886.75;5075277;28;20032;-60
2022/01/09 00:43:51;;;;;;;5.55;2.72;;;;;;;4.68;100.00;97892.88;5092896;28;20523;-60
2022/01/09 00:46:17;;;;;;;7.88;2.38;;;;;;;4.18;100.00;97820.84;5093437;28;20035;-60
2022/01/09 00:48:42;;;;;;;8.48;2.15;;;;;;;4.68;100.00;97917.13;5090229;28;20472;-61
2022/01/09 00:51:08;;;;;;;8.85;3.60;;;;;;;4.39;100.00;97868.81;5093142;28;20114;-61
2022/01/09 00:53:33;;;;;;;18.20;3.60;;;;;;;4.64;100.00;97926.88;5092290;28;20080;-60
2022/01/09 00:55:59;;;;;;;10.57;4.20;;;;;;;4.56;100.00;97934.34;5093007;28;20040;-60
2022/01/09 00:58:25;;;;;;;15.90;4.43;;;;;;;4.47;100.00;97957.53;5092603;28;20062;-60
2022/01/09 01:00:50;;;;;;;19.65;4.22;;;;;;;4.36;100.00;97958.22;5092929;28;20077;-60
2022/01/09 01:03:15;;;;;;;8.02;3.67;;;;;;;4.28;100.00;97965.69;5093029;28;20023;-61
2022/01/09 01:05:41;;;;;;;12.48;3.00;;;;;;;4.00;100.00;97948.41;5086760;28;20500;-61
2022/01/09 01:08:06;;;;;;;8.52;2.88;;;;;;;4.13;100.00;97980.47;5093218;28;20036;-61
2022/01/09 01:10:32;;;;;;;13.02;3.30;;;;;;;4.10;100.00;97993.66;5087238;28;20024;-61
2022/01/09 01:12:57;;;;;;;14.60;4.28;;;;;;;4.07;100.00;97998.22;5093024;28;20059;-61
2022/01/09 01:15:23;;;;;;;15.15;3.70;;;;;;;4.04;100.00;98008.81;5093115;28;20028;-60
2022/01/09 01:17:48;;;;;;;7.78;3.17;;;;;;;3.99;100.00;98027.25;5092347;28;20084;-61
2022/01/09 01:20:14;;;;;;;12.48;3.42;;;;;;;3.99;100.00;98032.44;5092582;28;20202;-61
2022/01/09 01:22:42;;;;;;;13.88;3.25;;;;;;;4.01;100.00;98045.38;5092965;28;20036;-61
2022/01/09 01:25:08;;;;;;;15.10;3.80;;;;;;;4.01;100.00;98046.19;5092897;28;20032;-60
2022/01/09 01:27:33;;;;;;;15.55;4.65;;;;;;;4.04;100.00;98061.59;5092655;28;20030;-61
2022/01/09 01:29:59;;;;;;;19.02;5.80;;;;;;;4.07;100.00;98069.19;5087458;28;20024;-61
2022/01/09 01:32:25;;;;;;;27.00;6.43;;;;;;;4.11;100.00;98093.22;5091336;28;20092;-62
2022/01/09 01:34:51;;;;;;;13.80;5.90;;;;;;;4.13;100.00;98106.94;5092979;28;20028;-61
2022/01/09 01:37:17;;;;;;;11.65;4.50;;;;;;;3.76;100.00;98061.59;5108366;28;20059;-61
2022/01/09 01:39:42;;;;;;;24.20;5.45;;;;;;;4.19;100.00;98121.34;5092679;28;20052;-61
2022/01/09 01:42:07;;;;;;;11.82;4.07;;;;;;;4.16;100.00;98134.53;5092780;28;20047;-61
2022/01/09 01:44:39;;;;;;;15.05;4.63;;;;;;;4.16;100.00;98142.34;5091824;28;20367;-62
2022/01/09 01:47:05;;;;;;;13.35;4.28;;;;;;;4.14;100.00;98137.22;5092219;28;20042;-62
2022/01/09 01:49:31;;;;;;;18.25;4.55;;;;;;;4.11;100.00;98150.41;5094024;28;20156;-62
2022/01/09 01:51:57;;;;;;;20.73;5.22;;;;;;;4.12;100.00;98145.09;5096207;28;20063;-61
2022/01/09 01:54:24;;;;;;;11.57;4.47;;;;;;;4.08;100.00;98158.38;5112074;28;20057;-61
2022/01/09 01:56:50;;;;;;;20.83;5.72;;;;;;;4.01;100.00;98173.50;5096438;28;20031;-62
2022/01/09 01:59:15;;;;;;;15.82;4.78;;;;;;;3.98;100.00;98170.25;5096232;28;20156;-61
2022/01/09 02:01:40;;;;;;;18.42;4.95;;;;;;;3.95;100.00;98186.84;5096038;28;20056;-62
2022/01/09 02:04:06;;;;;;;17.00;5.20;;;;;;;3.94;100.00;98186.94;5095807;28;20034;-62
2022/01/09 02:06:34;;;;;;;19.30;5.78;;;;;;;3.92;100.00;98192.22;5095963;28;20465;-61
2022/01/09 02:08:59;;;;;;;20.05;4.93;;;;;;;3.89;100.00;98195.00;5095359;28;20047;-62
2022/01/09 02:11:25;;;;;;;21.77;6.50;;;;;;;3.95;100.00;98209.41;5095165;28;20374;-61
2022/01/09 02:13:50;;;;;;;33.10;7.75;;;;;;;4.02;100.00;98218.50;5094012;28;20024;-62
2022/01/09 02:16:19;;;;;;;18.95;5.70;;;;;;;4.01;100.00;98206.44;5095570;28;20024;-62
2022/01/09 02:18:47;;;;;;;26.23;6.78;;;;;;;4.03;100.00;98221.00;5096010;28;20032;-62
2022/01/09 02:21:14;;;;;;;23.75;6.25;;;;;;;4.03;100.00;98225.34;5095934;28;20027;-63
2022/01/09 02:23:44;;;;;;;22.25;7.53;;;;;;;3.99;100.00;98214.31;5096046;28;20157;-62
2022/01/09 02:26:10;;;;;;;39.60;8.95;;;;;;;4.12;100.00;98233.44;5096189;28;20119;-62
2022/01/09 02:28:35;;;;;;;26.27;7.90;;;;;;;4.18;100.00;98237.47;5095834;28;20460;-62
2022/01/09 02:31:00;;;;;;;21.65;8.35;;;;;;;4.25;100.00;98240.53;5095369;28;20103;-62
2022/01/09 02:33:26;;;;;;;25.08;8.80;;;;;;;4.20;100.00;98245.16;5077301;28;20359;-62
2022/01/09 02:35:52;;;;;;;24.92;8.15;;;;;;;4.30;100.00;98248.88;5095658;28;20035;-62
2022/01/09 02:38:19;;;;;;;31.92;8.95;;;;;;;4.36;100.00;98269.34;5095034;28;20036;-62
2022/01/09 02:40:49;;;;;;;29.20;8.63;;;;;;;4.39;100.00;98274.34;5095466;28;20607;-62
2022/01/09 02:43:14;;;;;;;33.15;9.82;;;;;;;4.42;100.00;98276.75;5095241;28;20028;-62
2022/01/09 02:45:41;;;;;;;24.23;8.85;;;;;;;4.52;100.00;98283.09;5094986;28;20382;-62
2022/01/09 02:48:09;;;;;;;37.22;8.60;;;;;;;4.53;100.00;98288.19;5095026;28;20141;-62
2022/01/09 02:50:39;;;;;;;37.40;9.60;;;;;;;4.59;100.00;98305.19;5095337;28;20073;-62
2022/01/09 02:53:22;;;;;;;20.80;7.28;;;;;;;4.57;100.00;98304.44;5093077;28;20035;-62
2022/01/09 02:55:48;;;;;;;27.42;8.30;;;;;;;4.60;100.00;98312.06;5092542;28;20038;-62
2022/01/09 02:58:14;;;;;;;29.45;8.45;;;;;;;4.62;100.00;98323.22;5094843;28;20027;-62
2022/01/09 03:00:42;;;;;;;28.80;9.07;;;;;;;4.38;100.00;98289.09;5093472;28;20043;-62
2022/01/09 03:03:08;;;;;;;19.05;6.05;;;;;;;4.67;100.00;98331.56;5094830;28;20036;-62
2022/01/09 03:05:33;;;;;;;30.80;7.70;;;;;;;4.67;100.00;98338.53;5092523;28;20032;-62
2022/01/09 03:07:59;;;;;;;17.10;7.18;;;;;;;4.16;100.00;98261.88;5091516;28;20115;-62
2022/01/09 03:10:25;;;;;;;17.85;7.05;;;;;;;4.67;100.00;98352.38;5093051;28;20078;-62
2022/01/09 03:12:51;;;;;;;27.45;7.32;;;;;;;4.72;100.00;98360.75;5094893;28;20116;-62
2022/01/09 03:15:17;;;;;;;24.42;8.00;;;;;;;4.73;100.00;98369.41;5094776;28;20437;-62
2022/01/09 03:17:43;;;;;;;23.20;7.45;;;;;;;4.70;100.00;98359.19;5094914;28;20024;-62
2022/01/09 03:20:11;;;;;;;16.20;6.45;;;;;;;4.69;100.00;98376.53;5094140;28;20024;-62
2022/01/09 03:22:37;;;;;;;22.40;6.45;;;;;;;4.69;100.00;98393.91;5092967;28;20036;-62
2022/01/09 03:25:03;;;;;;;21.40;5.93;;;;;;;4.73;100.00;98391.03;5094171;28;20486;-62
2022/01/09 03:27:29;;;;;;;26.00;7.30;;;;;;;4.73;100.00;98387.59;5091006;28;20152;-62
2022/01/09 03:29:54;;;;;;;15.65;5.30;;;;;;;4.72;100.00;98412.78;5094656;28;20069;-63
2022/01/09 03:32:20;;;;;;;22.60;6.55;;;;;;;4.70;100.00;98406.81;5094580;28;20076;-62
2022/01/09 03:34:45;;;;;;;22.98;6.38;;;;;;;4.68;100.00;98413.88;5094330;28;20471;-62
2022/01/09 03:37:10;;;;;;;19.45;5.50;;;;;;;4.66;100.00;98422.69;5094438;28;20108;-62
2022/01/09 03:39:37;;;;;;;36.55;7.55;;;;;;;4.59;100.00;98406.63;5094019;28;20488;-62
2022/01/09 03:42:02;;;;;;;15.38;5.97;;;;;;;4.56;100.00;98412.00;5088537;28;20806;-62
2022/01/09 03:44:28;;;;;;;21.23;6.55;;;;;;;4.33;100.00;98381.25;5093926;28;20043;-62
2022/01/09 03:46:54;;;;;;;17.95;5.25;;;;;;;4.67;100.00;98435.59;5086420;28;20028;-62
2022/01/09 03:49:20;;;;;;;13.43;4.90;;;;;;;4.68;100.00;98437.28;5090074;28;20032;-62
2022/01/09 03:51:50;;;;;;;18.60;5.78;;;;;;;4.61;100.00;98435.97;5093656;28;20032;-62
2022/01/09 03:54:15;;;;;;;18.23;6.20;;;;;;;4.59;100.00;98443.88;5091775;28;20089;-62
2022/01/09 03:56:41;;;;;;;15.55;5.00;;;;;;;4.69;100.00;98467.59;5090477;28;20480;-62
2022/01/09 03:59:06;;;;;;;18.45;5.63;;;;;;;4.70;100.00;98471.84;5094213;28;20458;-62
2022/01/09 04:01:31;;;;;;;12.88;4.72;;;;;;;4.67;100.00;98477.22;5093871;28;20063;-62
2022/01/09 04:03:57;;;;;;;22.50;5.28;;;;;;;4.66;100.00;98485.97;5093643;28;20035;-62
2022/01/09 04:06:24;;;;;;;22.63;4.80;;;;;;;4.69;100.00;98496.19;5093981;28;20107;-62
2022/01/09 04:08:51;;;;;;;16.75;5.65;;;;;;;4.68;100.00;98491.91;5093857;28;20028;-62
2022/01/09 04:11:22;;;;;;;21.48;5.18;;;;;;;4.71;100.00;98494.34;5092732;28;20036;-62
2022/01/09 04:13:48;;;;;;;18.52;5.30;;;;;;;4.69;100.00;98498.78;5093518;28;20036;-62
2022/01/09 04:16:13;;;;;;;16.00;5.07;;;;;;;4.64;100.00;98508.59;5090939;28;20024;-62
2022/01/09 04:18:39;;;;;;;19.55;4.82;;;;;;;4.60;100.00;98518.34;5092371;28;20040;-62
2022/01/09 04:21:04;;;;;;;17.20;4.40;;;;;;;4.65;100.00;98518.09;5093594;28;20111;-62
2022/01/09 04:23:29;;;;;;;18.73;4.70;;;;;;;4.64;100.00;98532.84;5093333;28;20077;-63
2022/01/09 04:25:55;;;;;;;18.02;5.18;;;;;;;4.60;100.00;98533.94;5078988;28;20042;-62
2022/01/09 04:28:20;;;;;;;12.65;3.72;;;;;;;4.62;100.00;98533.88;5088220;28;20558;-62
2022/01/09 04:30:45;;;;;;;13.52;4.25;;;;;;;4.60;100.00;98538.31;5093494;28;20093;-61
2022/01/09 04:33:11;;;;;;;11.00;5.07;;;;;;;4.64;100.00;98555.41;5093406;28;20020;-62
2022/01/09 04:35:37;;;;;;;20.05;4.85;;;;;;;4.63;100.00;98551.97;5093407;28;20124;-62
2022/01/09 04:38:03;;;;;;;13.30;5.00;;;;;;;4.62;100.00;98565.09;5093098;28;20028;-62
2022/01/09 04:40:28;;;;;;;17.90;5.32;;;;;;;4.60;100.00;98569.50;5093548;28;20111;-62
2022/01/09 04:42:57;;;;;;;17.65;4.65;;;;;;;4.58;100.00;98576.56;5093283;28;20423;-62
2022/01/09 04:45:25;;;;;;;11.07;4.63;;;;;;;4.49;100.00;98557.13;5093336;28;20497;-62
2022/01/09 04:47:52;;;;;;;14.27;4.20;;;;;;;4.62;100.00;98593.69;5093126;28;20115;-62
2022/01/09 04:50:25;;;;;;;23.90;4.72;;;;;;;4.64;100.00;98597.88;5072751;28;20020;-62
2022/01/09 04:52:53;;;;;;;11.00;3.33;;;;;;;4.56;100.00;98587.06;5093022;28;20036;-62
2022/01/09 04:55:19;;;;;;;12.10;4.07;;;;;;;4.57;100.00;98606.09;5092956;28;20036;-62
2022/01/09 04:57:44;;;;;;;9.40;4.20;;;;;;;4.56;100.00;98615.66;5093086;28;20385;-62
2022/01/09 05:00:10;;;;;;;12.93;4.78;;;;;;;4.54;100.00;98620.13;5092861;28;20024;-62
2022/01/09 05:02:36;;;;;;;20.30;4.82;;;;;;;4.43;100.00;98609.44;5092604;28;20028;-62
2022/01/09 05:05:04;;;;;;;11.45;4.05;;;;;;;4.52;100.00;98623.72;5090725;28;20024;-62
2022/01/09 05:07:29;;;;;;;10.63;3.75;;;;;;;4.49;100.00;98619.53;5093126;28;20024;-62
2022/01/09 05:09:54;;;;;;;10.50;3.70;;;;;;;4.49;100.00;98623.91;5093167;28;20031;-62
2022/01/09 05:12:20;;;;;;;12.10;3.65;;;;;;;4.51;100.00;98635.03;5092534;28;20399;-62
2022/01/09 05:14:45;;;;;;;8.10;3.65;;;;;;;4.49;100.00;98642.09;5092817;28;20059;-62
2022/01/09 05:17:10;;;;;;;13.55;3.75;;;;;;;4.47;100.00;98636.97;5092895;28;20020;-62
2022/01/09 05:19:36;;;;;;;13.75;4.13;;;;;;;4.44;100.00;98638.88;5092977;28;20154;-62
2022/01/09 05:22:02;;;;;;;16.17;4.35;;;;;;;4.42;100.00;98653.75;5093138;28;20036;-62
2022/01/09 05:24:28;;;;;;;13.93;4.85;;;;;;;4.41;100.00;98655.50;5093692;28;20111;-62
2022/01/09 05:26:54;;;;;;;19.25;4.75;;;;;;;4.42;100.00;98664.16;5096794;28;20111;-62
2022/01/09 05:29:20;;;;;;;13.57;4.30;;;;;;;4.45;100.00;98679.59;5096936;28;20032;-62
2022/01/09 05:31:48;;;;;;;22.55;3.97;;;;;;;4.43;100.00;98674.44;5096923;28;20779;-62
2022/01/09 05:34:13;;;;;;;20.05;5.05;;;;;;;4.41;100.00;98678.06;5096677;28;20028;-62
2022/01/09 05:36:39;;;;;;;10.25;4.28;;;;;;;4.33;100.00;98680.22;5096797;28;20081;-63
2022/01/09 05:39:04;;;;;;;8.05;3.15;;;;;;;4.22;100.00;98678.19;5096566;28;20020;-62
2022/01/09 05:41:29;;;;;;;11.45;4.45;;;;;;;4.02;100.00;98671.41;5096663;28;20024;-62
2022/01/09 05:43:55;;;;;;;16.33;5.20;;;;;;;4.12;100.00;98685.59;5094539;28;20032;-62
2022/01/09 05:46:20;;;;;;;19.45;4.93;;;;;;;4.13;100.00;98702.03;5096427;28;20482;-62
2022/01/09 05:48:46;;;;;;;9.50;3.45;;;;;;;4.13;100.00;98699.44;5096698;28;20040;-62
2022/01/09 05:51:11;;;;;;;16.98;4.78;;;;;;;3.91;100.00;98681.53;5096109;28;20039;-62
2022/01/09 05:53:37;;;;;;;20.80;4.50;;;;;;;3.94;100.00;98703.91;5096237;28;20074;-63
2022/01/09 05:56:02;;;;;;;13.43;4.65;;;;;;;3.90;100.00;98708.41;5094775;28;20070;-62
2022/01/09 05:58:28;;;;;;;13.25;4.68;;;;;;;3.67;100.00;98684.50;5096442;28;20028;-62
2022/01/09 06:00:53;;;;;;;20.90;5.18;;;;;;;3.84;100.00;98708.72;5096475;28;20489;-62
2022/01/09 06:03:18;;;;;;;17.90;5.30;;;;;;;3.78;100.00;98714.25;5096314;28;20020;-62
2022/01/09 06:05:44;;;;;;;16.67;4.88;;;;;;;3.69;100.00;98725.06;5095658;28;20024;-62
2022/01/09 06:08:09;;;;;;;20.65;5.95;;;;;;;3.69;100.00;98719.88;5096542;28;20059;-62
2022/01/09 06:10:34;;;;;;;13.93;4.70;;;;;;;3.64;100.00;98721.88;5096171;28;20386;-62
2022/01/09 06:13:00;;;;;;;9.48;4.22;;;;;;;3.68;100.00;98726.00;5096096;28;20111;-62
2022/01/09 06:15:25;;;;;;;18.23;5.20;;;;;;;3.71;100.00;98733.63;5096036;28;20105;-62
2022/01/09 06:17:50;;;;;;;13.38;5.00;;;;;;;3.74;100.00;98728.28;5095812;28;20110;-62
2022/01/09 06:20:16;;;;;;;9.02;3.45;;;;;;;3.74;100.00;98736.09;5095704;28;20059;-63
2022/01/09 06:22:43;;;;;;;18.25;4.45;;;;;;;3.79;100.00;98744.47;5077716;28;20028;-63
2022/01/09 06:25:09;;;;;;;14.40;3.78;;;;;;;3.70;100.00;98742.34;5094333;28;20028;-63
2022/01/09 06:27:34;;;;;;;11.55;3.00;;;;;;;3.62;100.00;98744.44;5095637;28;20031;-63
2022/01/09 06:30:00;;;;;;;10.75;3.08;;;;;;;3.44;100.00;98750.56;5095879;28;20028;-63
2022/01/09 06:32:25;;;;;;;17.02;3.63;;;;;;;3.23;100.00;98736.00;5095800;28;20486;-63
2022/01/09 06:34:51;;;;;;;15.80;3.88;;;;;;;2.95;100.00;98716.53;5095159;28;20063;-63
2022/01/09 06:37:16;;;;;;;17.33;3.33;;;;;;;3.15;100.00;98748.47;5095318;28;20024;-63
2022/01/09 06:39:42;;;;;;;22.98;4.80;;;;;;;3.12;100.00;98753.81;5095606;28;20031;-63
2022/01/09 06:42:08;;;;;;;11.05;3.88;;;;;;;3.16;100.00;98776.97;5095856;28;20470;-63
2022/01/09 06:44:33;;;;;;;11.25;4.10;;;;;;;3.16;100.00;98774.38;5095250;28;20040;-62
2022/01/09 06:46:59;;;;;;;11.85;3.50;;;;;;;3.03;100.00;98763.72;5095509;28;20031;-63
2022/01/09 06:49:24;;;;;;;11.45;4.03;;;;;;;3.18;100.00;98788.09;5095307;28;20032;-63
2022/01/09 06:51:50;;;;;;;8.95;3.38;;;;;;;3.07;100.00;98790.38;5095156;28;20096;-62
2022/01/09 06:54:15;;;;;;;13.60;3.15;;;;;;;3.07;100.00;98801.59;5094788;28;20039;-62
2022/01/09 06:56:41;;;;;;;10.50;4.45;;;;;;;3.07;100.00;98793.81;5095223;28;20023;-62
2022/01/09 06:59:06;;;;;;;13.23;3.85;;;;;;;3.17;100.00;98798.56;5095326;28;20027;-62
2022/01/09 07:01:32;;;;;;;13.82;4.97;;;;;;;3.19;100.00;98804.50;5095150;28;20038;-63
2022/01/09 07:03:57;;;;;;;15.65;4.80;;;;;;;3.26;100.00;98811.09;5093761;28;20114;-63
2022/01/09 07:06:23;;;;;;;16.83;3.88;;;;;;;3.31;100.00;98811.75;5094701;28;20063;-63
2022/01/09 07:08:48;;;;;;;12.73;4.32;;;;;;;3.33;100.00;98820.28;5095208;28;20118;-62
2022/01/09 07:11:14;;;;;;;13.45;3.65;;;;;;;3.25;100.00;98824.97;5094912;28;20073;-63
2022/01/09 07:13:39;;;;;;;12.52;4.50;;;;;;;3.30;100.00;98831.66;5093785;28;20032;-63
2022/01/09 07:16:04;;;;;;;13.43;5.45;;;;;;;3.35;100.00;98844.41;5094928;28;20028;-62
2022/01/09 07:18:30;;;;;;;11.25;3.90;;;;;;;3.03;100.00;98792.25;5094685;28;20543;-63
2022/01/09 07:20:55;;;;;;;14.68;4.68;;;;;;;3.33;100.00;98846.25;5094610;28;20071;-63
2022/01/09 07:23:21;;;;;;;11.68;4.53;;;;;;;3.33;100.00;98867.00;5094886;28;20028;-63
2022/01/09 07:25:46;;;;;;;13.93;5.70;;;;;;;3.30;100.00;98859.38;5094711;28;20491;-63
2022/01/09 07:28:11;;;;;;;20.48;6.28;;;;;;;3.24;100.00;98872.63;5094146;28;20031;-63
2022/01/09 07:30:37;;;;;;;17.58;5.88;;;;;;;3.21;100.00;98868.41;5093640;28;20036;-63
2022/01/09 07:33:04;;;;;;;11.68;4.38;;;;;;;3.24;100.00;98867.44;5094491;28;20387;-63
2022/01/09 07:35:31;;;;;;;8.80;4.10;;;;;;;3.19;100.00;98869.38;5087071;28;20694;-63
2022/01/09 07:37:56;;;;;;;11.80;4.53;;;;;;;3.22;100.00;98882.22;5094388;28;20039;-63
2022/01/09 07:40:22;;;;;;;16.77;3.83;;;;;;;3.22;100.00;98870.09;5094267;28;20059;-63
2022/01/09 07:42:48;;;;;;;12.05;4.40;;;;;;;3.19;100.00;98890.16;5094352;28;20072;-63
2022/01/09 07:45:15;;;;;;;10.48;4.97;;;;;;;3.19;100.00;98884.94;5094481;28;20031;-63
2022/01/09 07:47:40;;;;;;;13.77;4.43;;;;;;;3.20;100.00;98884.06;5093854;28;20034;-62
2022/01/09 07:50:11;;;;;;;13.57;3.88;;;;;;;3.17;100.00;98897.16;5090655;28;20028;-63
2022/01/09 07:52:38;;;;;;;11.40;4.03;;;;;;;3.17;100.00;98895.41;5091279;28;20445;-63
2022/01/09 07:55:05;;;;;;;13.50;4.53;;;;;;;3.18;100.00;98901.47;5093887;28;20040;-63
2022/01/09 07:57:30;;;;;;;16.88;4.40;;;;;;;3.15;100.00;98910.19;5110112;28;20032;-63
2022/01/09 08:00:02;;;;;;;12.77;4.50;;;;;;;3.16;100.00;98913.63;5093775;28;20028;-63
2022/01/09 08:02:28;;;;;;;17.95;5.97;;;;;;;3.18;100.00;98909.25;5094224;28;20035;-63
2022/01/09 08:04:53;;;;;;;13.65;4.55;;;;;;;3.16;100.00;98917.06;5094011;28;20031;-63
2022/01/09 08:07:18;;;;;;;12.45;4.25;;;;;;;3.15;100.00;98917.13;5093743;28;20081;-63
2022/01/09 08:09:45;;;;;;;16.17;4.47;;;;;;;3.16;100.00;98926.59;5093836;28;20107;-63
2022/01/09 08:12:11;;;;;;;10.68;4.85;;;;;;;3.21;100.00;98935.88;5091435;28;20402;-63
2022/01/09 08:14:40;;;;;;;12.57;5.00;;;;;;;3.19;100.00;98929.91;5091702;28;20050;-63
2022/01/09 08:17:06;;;;;;;17.30;6.07;;;;;;;3.17;100.00;98939.53;5090390;28;20024;-63
2022/01/09 08:19:31;;;;;;;13.43;5.70;;;;;;;3.19;100.00;98947.22;5093567;28;20028;-63
2022/01/09 08:22:00;;;;;;;19.48;5.72;;;;;;;3.17;100.00;98951.66;5093724;28;20040;-63
2022/01/09 08:24:25;;;;;;;17.10;5.65;;;;;;;3.18;100.00;98950.75;5092721;28;20036;-63
2022/01/09 08:26:51;;;;;;;14.73;4.78;;;;;;;3.23;100.00;98959.16;5092257;28;20046;-63
2022/01/09 08:29:17;;;;;;;13.25;4.72;;;;;;;3.25;100.00;98954.75;5082524;28;20066;-63
2022/01/09 08:31:43;;;;;;;10.60;4.57;;;;;;;3.25;100.00;98957.34;5092565;28;20142;-63
2022/01/09 08:34:08;;;;;;;10.40;4.20;;;;;;;2.81;100.00;98895.25;5092436;28;20051;-63
2022/01/09 08:36:34;;;;;;;10.63;4.40;;;;;;;3.19;100.00;98962.81;5090711;28;20024;-63
2022/01/09 08:38:59;;;;;;;10.43;4.03;;;;;;;3.23;100.00;98967.81;5091707;28;20084;-63
2022/01/09 08:41:25;;;;;;;10.40;3.80;;;;;;;3.21;100.00;98961.00;5086935;28;20024;-63
2022/01/09 08:43:50;;;;;;;10.10;4.30;;;;;;;3.18;100.00;98961.13;5092849;28;20149;-62
2022/01/09 08:46:16;;;;;;;14.45;4.35;;;;;;;3.09;100.00;98968.41;5074008;28;20493;-63
2022/01/09 08:48:41;;;;;;;11.60;4.43;;;;;;;2.92;100.00;98944.94;5091973;28;20103;-61
2022/01/09 08:51:07;;;;;;;12.85;4.53;;;;;;;3.23;100.00;98975.59;5091736;28;20040;-63
2022/01/09 08:53:35;;;;;;;11.52;5.18;;;;;;;2.83;100.00;98893.47;5091727;28;20027;-61
2022/01/09 08:56:04;;;;;;;24.55;6.60;;;;;;;3.24;100.00;98956.53;5091662;28;20617;-60
2022/01/09 08:58:30;;;;;;;10.60;5.25;;;;;;;3.49;100.00;98997.81;5092170;28;20032;-60
2022/01/09 09:00:55;;;;;;;15.93;4.20;;;;;;;3.53;100.00;98983.78;5091366;28;20111;-61
2022/01/09 09:03:25;;;;;;;15.02;5.15;;;;;;;3.55;100.00;98998.38;5092722;28;20035;-63
2022/01/09 09:05:50;;;;;;;7.65;4.43;;;;;;;3.64;100.00;98997.13;5092108;28;20028;-63
2022/01/09 09:08:16;;;;;;;9.82;5.18;;;;;;;3.70;100.00;98998.59;5073982;28;20180;-63
2022/01/09 09:10:42;;;;;;;17.20;5.60;;;;;;;3.72;100.00;98999.41;5072686;28;20421;-62
2022/01/09 09:13:07;;;;;;;11.85;5.78;;;;;;;3.68;100.00;98993.50;5106663;28;20039;-63
2022/01/09 09:15:33;;;;;;;11.20;4.65;;;;;;;3.80;100.00;99010.25;5091834;28;20055;-61
2022/01/09 09:17:59;;;;;;;14.45;4.30;;;;;;;3.74;100.00;98997.56;5091701;28;20065;-64
2022/01/09 09:20:25;;;;;;;12.32;4.60;;;;;;;3.62;100.00;98988.56;5091822;28;20024;-63
2022/01/09 09:22:50;;;;;;;16.67;5.05;;;;;;;3.83;100.00;99018.75;5091805;28;20108;-61
2022/01/09 09:25:16;;;;;;;15.10;4.50;;;;;;;3.87;100.00;99029.88;5091750;28;20027;-60
2022/01/09 09:27:42;;;;;;;10.80;4.45;;;;;;;3.49;100.00;98961.44;5092617;28;20400;-61
2022/01/09 09:30:08;;;;;;;15.63;4.55;;;;;;;3.82;100.00;99027.47;5092149;28;20082;-61
2022/01/09 09:32:34;;;;;;;11.98;4.50;;;;;;;3.74;100.00;99034.78;5092483;28;20024;-61
2022/01/09 09:35:00;;;;;;;13.10;4.80;;;;;;;3.73;100.00;99027.88;5090875;28;20438;-61
2022/01/09 09:37:28;;;;;;;10.32;4.03;;;;;;;3.75;100.00;99028.63;5089593;28;20119;-59
2022/01/09 09:39:53;;;;;;;15.85;4.95;;;;;;;3.75;100.00;99025.22;5092049;28;20396;-63
2022/01/09 09:42:20;;;;;;;18.90;4.32;;;;;;;3.58;100.00;98997.41;5092576;28;20112;-64
2022/01/09 09:44:45;;;;;;;12.25;4.80;;;;;;;3.42;100.00;98960.03;5091953;28;20040;-64
2022/01/09 09:47:11;;;;;;;8.35;4.32;;;;;;;3.93;100.00;99046.00;5090899;28;20482;-61
2022/01/09 09:49:36;;;;;;;13.30;4.82;;;;;;;4.01;100.00;99050.88;5091441;28;20024;-63
2022/01/09 09:52:05;;;;;;;11.38;5.10;;;;;;;4.18;100.00;99060.50;5102145;28;20020;-63
2022/01/09 09:54:30;;;;;;;14.85;5.28;;;;;;;4.31;100.00;99053.81;5092015;28;20123;-63
2022/01/09 09:56:57;;;;;;;13.23;4.63;;;;;;;4.39;100.00;99068.16;5090749;28;20210;-63
2022/01/09 09:59:28;;;;;;;14.18;4.93;;;;;;;4.41;100.00;99068.06;5085276;28;20119;-62
2022/01/09 10:01:53;;;;;;;11.00;4.43;;;;;;;4.42;100.00;99070.63;5092262;28;20032;-64
2022/01/09 10:04:18;;;;;;;14.00;3.70;;;;;;;4.40;100.00;99069.81;5091789;28;20031;-64
2022/01/09 10:06:46;;;;;;;15.13;3.70;;;;;;;4.03;100.00;99020.44;5091381;28;20077;-72
2022/01/09 10:09:12;;;;;;;8.45;3.60;;;;;;;4.40;100.00;99072.44;5091367;28;20026;-68
2022/01/09 10:11:51;;;;;;;11.10;4.20;;;;;;;4.52;100.00;99078.84;5109724;28;20028;-65
2022/01/09 10:14:18;;;;;;;11.43;4.13;;;;;;;4.55;100.00;99082.13;5094156;28;20043;-65
2022/01/09 10:17:07;;;;;;;11.32;4.18;;;;;;;4.60;100.00;99079.28;5092932;28;20028;-67
2022/01/09 10:19:42;;;;;;;16.13;3.60;;;;;;;4.66;100.00;99083.38;5093682;28;20055;-65
2022/01/09 10:22:25;;;;;;;12.95;3.90;;;;;;;4.79;100.00;99082.72;5090311;28;20040;-65
2022/01/09 10:24:50;;;;;;;14.23;4.68;;;;;;;4.80;100.00;99086.19;5094468;28;20460;-65
2022/01/09 10:27:33;;;;;;;11.95;3.58;;;;;;;4.76;100.00;99085.47;5093908;28;20020;-65
2022/01/09 10:30:04;;;;;;;8.27;3.17;;;;;;;4.70;100.00;99101.34;5094839;28;20506;-65
2022/01/09 10:32:31;;;;;;;14.60;4.30;;;;;;;4.64;100.00;99101.66;5093154;28;20114;-65
2022/01/09 10:35:10;;;;;;;11.55;3.70;;;;;;;4.62;100.00;99095.69;5093268;28;20035;-65
2022/01/09 10:37:36;;;;;;;14.05;3.70;;;;;;;4.68;100.00;99108.41;5091692;28;20040;-65
2022/01/09 10:40:08;;;;;;;15.88;3.75;;;;;;;4.71;100.00;99097.84;5093503;28;20028;-65
2022/01/09 10:42:34;;;;;;;10.52;4.03;;;;;;;4.83;100.00;99107.69;5089777;28;20390;-65
2022/01/09 10:45:20;;;;;;;18.00;3.97;;;;;;;5.02;100.00;99116.28;5093749;28;20039;-65
2022/01/09 10:47:46;;;;;;;15.73;3.90;;;;;;;5.01;100.00;99116.34;5087587;28;20028;-65
2022/01/09 10:50:23;;;;;;;13.80;4.55;;;;;;;5.01;100.00;99126.75;5093927;28;20036;-65
2022/01/09 10:52:48;;;;;;;12.80;3.95;;;;;;;4.98;100.00;99132.97;5094758;28;20046;-66
2022/01/09 10:55:13;;;;;;;13.30;5.53;;;;;;;4.95;100.00;99122.72;5090368;28;20036;-66
2022/01/09 10:57:40;;;;;;;18.77;5.35;;;;;;;5.12;100.00;99130.53;5093730;28;20028;-65
2022/01/09 11:00:14;;;;;;;11.65;4.45;;;;;;;5.23;100.00;99129.19;5093849;28;20104;-68
2022/01/09 11:02:40;;;;;;;10.73;3.80;;;;;;;5.35;100.00;99125.97;5094919;28;20032;-68
2022/01/09 11:05:06;;;;;;;14.13;4.07;;;;;;;5.41;100.00;99125.66;5108875;28;20028;-70
2022/01/09 11:07:32;;;;;;;17.98;4.43;;;;;;;5.11;100.00;99102.81;5086721;28;20130;-68
2022/01/09 11:09:58;;;;;;;10.95;4.07;;;;;;;5.20;100.00;99124.97;5093704;28;20352;-72
2022/01/09 11:12:31;;;;;;;12.77;3.95;;;;;;;5.10;100.00;99131.53;5093200;28;20529;-63
2022/01/09 11:15:00;;;;;;;19.35;5.13;;;;;;;5.11;100.00;99147.06;5094379;28;20110;-64
2022/01/09 11:17:26;;;;;;;14.30;4.53;;;;;;;5.10;100.00;99145.38;5093903;28;20035;-66
2022/01/09 11:19:51;;;;;;;17.13;4.93;;;;;;;5.14;100.00;99154.72;5109480;28;20024;-64
2022/01/09 11:22:16;;;;;;;11.90;4.85;;;;;;;5.26;100.00;99147.25;5092967;28;20024;-64